createdAt,value
2023-04-28T19:00:09.932Z,2.78
2023-04-28T19:02:37.997Z,2.47
2023-04-28T19:05:06.692Z,2.70
2023-04-28T19:07:34.616Z,4.85
2023-04-28T19:10:02.662Z,6.70
2023-04-28T19:12:31.867Z,8.27
2023-04-28T19:14:59.897Z,3.53
2023-04-28T19:17:29.452Z,2.10
2023-04-28T19:19:57.856Z,3.80
2023-04-28T19:22:32.877Z,1.55
2023-04-28T19:27:32.048Z,9.65
2023-04-28T19:30:00.028Z,5.93
2023-04-28T19:32:29.876Z,2.78
2023-04-28T19:34:57.909Z,3.15
2023-04-28T19:37:29.723Z,7.93
2023-04-28T19:39:57.749Z,2.80
2023-04-28T19:42:25.863Z,6.43
2023-04-28T19:44:56.234Z,3.45
2023-04-28T19:47:24.898Z,3.15
2023-04-28T19:49:54.699Z,1.80
2023-04-28T19:52:23.456Z,2.20
2023-04-28T19:54:51.949Z,3.90
2023-04-28T19:57:20.256Z,1.60
2023-04-28T19:59:49.096Z,2.85
2023-04-28T20:02:17.664Z,1.95
2023-04-28T20:04:46.143Z,2.15
2023-04-28T20:07:15.564Z,2.95
2023-04-28T20:09:44.449Z,3.47
2023-04-28T20:12:12.403Z,1.80
2023-04-28T20:14:40.317Z,3.35
2023-04-28T20:17:10.013Z,3.13
2023-04-28T20:19:37.910Z,8.48
2023-04-28T20:22:08.709Z,1.77
2023-04-28T20:24:39.306Z,2.47
2023-04-28T20:27:07.287Z,5.00
2023-04-28T20:29:35.680Z,3.30
2023-04-28T20:32:04.181Z,3.08
2023-04-28T20:34:32.445Z,2.42
2023-04-28T20:37:04.219Z,7.78
2023-04-28T20:39:32.277Z,1.58
2023-04-28T20:42:01.957Z,1.45
2023-04-28T20:44:29.929Z,1.67
2023-04-28T20:46:59.009Z,1.45
2023-04-28T20:49:26.910Z,2.75
2023-04-28T20:51:54.783Z,0.85
2023-04-28T20:54:22.891Z,2.83
2023-04-28T20:56:50.735Z,1.45
2023-04-28T20:59:19.961Z,3.58
2023-04-28T21:01:48.370Z,5.63
2023-04-28T21:04:16.634Z,6.45
2023-04-28T21:06:44.826Z,6.93
2023-04-28T21:09:13.893Z,8.63
2023-04-28T21:11:42.468Z,9.73
2023-04-28T21:14:10.654Z,12.93
2023-04-28T21:16:39.921Z,21.67
2023-04-28T21:19:07.956Z,15.40
2023-04-28T21:21:35.788Z,21.52
2023-04-28T21:24:03.650Z,21.80
2023-04-28T21:26:31.637Z,18.77
2023-04-28T21:28:59.851Z,24.70
2023-04-28T21:31:27.814Z,23.65
2023-04-28T21:33:57.493Z,21.63
2023-04-28T21:36:25.427Z,23.25
2023-04-28T21:38:53.310Z,26.50
2023-04-28T21:41:21.341Z,25.35
2023-04-28T21:43:49.250Z,29.27
2023-04-28T21:46:18.787Z,29.90
2023-04-28T21:48:47.160Z,31.85
2023-04-28T21:51:16.818Z,28.25
2023-04-28T21:53:44.669Z,28.33
2023-04-28T21:56:12.719Z,35.08
2023-04-28T21:58:40.839Z,32.65
2023-04-28T22:01:08.789Z,32.42
2023-04-28T22:03:37.323Z,32.28
2023-04-28T22:06:05.764Z,32.25
2023-04-28T22:08:35.886Z,36.80
2023-04-28T22:11:04.137Z,35.08
2023-04-28T22:13:31.977Z,38.55
2023-04-28T22:16:01.658Z,33.50
2023-04-28T22:18:29.980Z,33.13
2023-04-28T22:20:57.868Z,32.80
2023-04-28T22:23:25.938Z,35.15
2023-04-28T22:25:58.206Z,31.83
2023-04-28T22:28:26.457Z,34.97
2023-04-28T22:30:54.834Z,39.05
2023-04-28T22:33:22.727Z,35.97
2023-04-28T22:35:50.898Z,38.63
2023-04-28T22:38:18.773Z,39.80
2023-04-28T22:40:46.835Z,38.58
2023-04-28T22:43:16.730Z,48.45
2023-04-28T22:45:45.498Z,46.55
2023-04-28T22:48:16.182Z,48.63
2023-04-28T22:50:44.259Z,53.80
2023-04-28T22:53:12.114Z,49.25
2023-04-28T22:55:40.020Z,54.45
2023-04-28T22:58:08.098Z,53.03
